createdAt,value
2024-02-20T00:02:20.562Z,6.93
2024-02-20T00:04:47.139Z,6.80
2024-02-20T00:07:13.901Z,5.75
2024-02-20T00:09:40.729Z,6.85
2024-02-20T00:12:07.287Z,7.82
2024-02-20T00:14:34.028Z,7.50
2024-02-20T00:17:00.520Z,8.60
2024-02-20T00:19:27.176Z,6.63
2024-02-20T00:21:53.810Z,6.68
2024-02-20T00:24:20.328Z,5.72
2024-02-20T00:26:46.876Z,6.18
2024-02-20T00:29:13.346Z,4.45
2024-02-20T00:31:39.931Z,7.88
2024-02-20T00:34:06.529Z,5.75
2024-02-20T00:36:33.116Z,5.68
2024-02-20T00:39:00.200Z,5.57
2024-02-20T00:41:27.774Z,5.13
2024-02-20T00:43:54.291Z,4.70
2024-02-20T00:46:21.364Z,6.45
2024-02-20T00:48:49.259Z,5.82
2024-02-20T00:51:18.537Z,5.60
2024-02-20T00:53:45.051Z,5.30
2024-02-20T00:56:12.571Z,6.43
2024-02-20T00:58:39.777Z,5.60
2024-02-20T01:01:11.360Z,3.38
2024-02-20T01:03:38.809Z,4.05
2024-02-20T01:06:07.865Z,4.88
2024-02-20T01:08:35.302Z,4.57
2024-02-20T01:11:02.108Z,4.75
2024-02-20T01:13:28.724Z,4.63
2024-02-20T01:15:55.315Z,3.17
2024-02-20T01:18:21.997Z,4.45
2024-02-20T01:20:48.546Z,5.47
2024-02-20T01:23:16.521Z,3.58
2024-02-20T01:25:43.585Z,5.28
2024-02-20T01:28:10.505Z,4.28
2024-02-20T01:30:37.561Z,5.53
2024-02-20T01:33:04.281Z,3.95
2024-02-20T01:35:31.049Z,6.65
2024-02-20T01:38:00.789Z,4.57
2024-02-20T01:40:27.680Z,4.88
2024-02-20T01:42:57.633Z,5.68
2024-02-20T01:45:25.148Z,4.53
2024-02-20T01:47:51.885Z,4.18
2024-02-20T01:50:18.973Z,2.42
2024-02-20T01:52:45.639Z,5.75
2024-02-20T01:55:12.841Z,3.83
2024-02-20T01:57:40.007Z,3.78
2024-02-20T02:00:07.727Z,4.80
2024-02-20T02:02:34.934Z,4.20
2024-02-20T02:05:01.826Z,4.40
2024-02-20T02:07:28.700Z,6.22
2024-02-20T02:09:55.379Z,3.40
2024-02-20T02:12:22.146Z,5.72
2024-02-20T02:14:48.788Z,6.97
2024-02-20T02:17:15.928Z,5.60
2024-02-20T02:19:42.799Z,4.90
2024-02-20T02:22:09.642Z,5.13
2024-02-20T02:24:36.708Z,4.55
2024-02-20T02:27:06.525Z,4.32
2024-02-20T02:29:33.111Z,4.53
2024-02-20T02:32:00.009Z,4.22
2024-02-20T02:34:30.595Z,5.05
2024-02-20T02:36:57.757Z,4.13
2024-02-20T02:39:24.735Z,3.75
2024-02-20T02:41:51.702Z,6.03
2024-02-20T02:44:18.670Z,5.68
2024-02-20T02:46:45.234Z,5.63
2024-02-20T02:49:12.027Z,4.40
2024-02-20T02:51:38.859Z,4.55
2024-02-20T02:54:05.510Z,8.02
2024-02-20T02:56:32.122Z,3.90
2024-02-20T02:59:00.434Z,4.30
2024-02-20T03:01:27.074Z,7.57
2024-02-20T03:03:53.768Z,5.70
2024-02-20T03:06:20.351Z,4.43
2024-02-20T03:08:48.706Z,6.63
2024-02-20T03:11:16.149Z,7.70
2024-02-20T03:13:42.827Z,9.65
2024-02-20T03:16:09.541Z,5.50
2024-02-20T03:18:39.276Z,5.78
2024-02-20T03:21:07.623Z,5.22
2024-02-20T03:23:34.358Z,5.25
2024-02-20T03:26:01.078Z,6.43
2024-02-20T03:28:27.943Z,4.72
2024-02-20T03:30:55.528Z,9.30
2024-02-20T03:33:22.543Z,3.40
2024-02-20T03:35:49.259Z,6.82
2024-02-20T03:38:16.961Z,7.72
2024-02-20T03:40:44.295Z,4.97
2024-02-20T03:43:10.958Z,3.42
2024-02-20T03:45:37.641Z,4.00
2024-02-20T03:48:04.310Z,3.70
2024-02-20T03:50:31.016Z,5.07
2024-02-20T03:52:57.564Z,6.25
2024-02-20T03:55:24.093Z,5.00
2024-02-20T03:57:50.865Z,4.75
2024-02-20T04:00:17.687Z,5.93
2024-02-20T04:02:44.327Z,4.90
2024-02-20T04:05:16.533Z,5.05
2024-02-20T04:07:48.257Z,4.03
2024-02-20T04:10:15.590Z,5.85
2024-02-20T04:12:43.329Z,3.92
2024-02-20T04:15:11.652Z,4.20
2024-02-20T04:17:38.519Z,5.95
2024-02-20T04:20:08.828Z,3.65
2024-02-20T04:22:35.998Z,4.88
2024-02-20T04:25:02.692Z,5.50
2024-02-20T04:27:30.283Z,5.63
2024-02-20T04:29:56.840Z,4.90
2024-02-20T04:32:23.880Z,7.18
2024-02-20T04:34:50.915Z,6.95
2024-02-20T04:37:17.878Z,4.40
2024-02-20T04:39:47.836Z,6.63
2024-02-20T04:42:14.436Z,6.93
2024-02-20T04:44:41.021Z,6.72
2024-02-20T04:47:07.946Z,6.65
2024-02-20T04:49:34.760Z,5.00
2024-02-20T04:52:01.452Z,9.40
2024-02-20T04:54:28.361Z,6.82
2024-02-20T04:56:54.903Z,6.18
2024-02-20T04:59:23.104Z,7.88
2024-02-20T05:01:50.210Z,6.13
2024-02-20T05:04:16.954Z,4.57
2024-02-20T05:06:43.604Z,4.97
2024-02-20T05:09:11.167Z,6.78
2024-02-20T05:11:37.814Z,4.50
2024-02-20T05:14:04.737Z,5.05
2024-02-20T05:16:31.385Z,4.72
2024-02-20T05:18:58.178Z,8.57
2024-02-20T05:21:24.757Z,5.85
2024-02-20T05:23:51.330Z,4.13
2024-02-20T05:26:17.953Z,4.57
2024-02-20T05:28:44.606Z,5.03
2024-02-20T05:31:30.248Z,4.30
2024-02-20T05:33:57.559Z,5.13
2024-02-20T05:36:24.742Z,6.32
2024-02-20T05:38:51.382Z,7.53
2024-02-20T05:41:20.706Z,8.80
2024-02-20T05:43:48.166Z,6.50
2024-02-20T05:46:15.128Z,5.28
2024-02-20T05:48:42.129Z,4.95
2024-02-20T05:51:14.735Z,6.55
2024-02-20T05:53:41.447Z,3.88
2024-02-20T05:56:08.087Z,4.35
2024-02-20T05:58:34.977Z,4.72
2024-02-20T06:01:01.818Z,6.68
2024-02-20T06:03:28.392Z,5.88
2024-02-20T06:05:55.086Z,3.35
2024-02-20T06:08:22.686Z,4.75
2024-02-20T06:10:49.617Z,7.03
2024-02-20T06:13:16.268Z,6.40
2024-02-20T06:15:42.841Z,6.22
2024-02-20T06:18:09.507Z,8.75
2024-02-20T06:20:41.050Z,5.18
2024-02-20T06:23:07.812Z,8.57
2024-02-20T06:25:34.589Z,8.07
2024-02-20T06:28:01.327Z,9.50
2024-02-20T06:30:30.877Z,6.93
2024-02-20T06:32:57.528Z,5.85
2024-02-20T06:35:24.212Z,3.83
2024-02-20T06:37:50.969Z,5.93
2024-02-20T06:40:17.681Z,5.05
2024-02-20T06:42:44.231Z,6.05
2024-02-20T06:45:12.863Z,6.07
2024-02-20T06:47:40.101Z,7.75
2024-02-20T06:50:10.185Z,5.85
2024-02-20T06:52:39.894Z,5.32
2024-02-20T06:55:07.323Z,4.38
2024-02-20T06:57:36.388Z,5.82
2024-02-20T07:00:04.650Z,2.55
2024-02-20T07:02:33.991Z,4.70
2024-02-20T07:05:03.831Z,3.13
2024-02-20T07:07:30.494Z,4.70
2024-02-20T07:09:57.054Z,6.55
2024-02-20T07:12:24.577Z,4.38
2024-02-20T07:14:51.277Z,6.20
2024-02-20T07:17:17.888Z,5.00
2024-02-20T07:19:44.526Z,4.53
2024-02-20T07:22:11.245Z,5.38
2024-02-20T07:24:37.804Z,5.70
2024-02-20T07:27:04.473Z,4.72
2024-02-20T07:29:31.052Z,4.05
2024-02-20T07:31:58.178Z,4.88
2024-02-20T07:34:25.335Z,4.43
2024-02-20T07:36:52.004Z,4.95
2024-02-20T07:39:18.754Z,5.60
2024-02-20T07:41:45.392Z,3.83
2024-02-20T07:44:12.043Z,4.07
2024-02-20T07:46:38.869Z,3.30
2024-02-20T07:49:05.676Z,4.72
2024-02-20T07:51:34.285Z,5.20
2024-02-20T07:54:00.927Z,4.70
2024-02-20T07:56:28.709Z,3.72
2024-02-20T07:58:55.240Z,5.47
2024-02-20T08:01:23.240Z,5.20
2024-02-20T08:03:50.339Z,4.88
2024-02-20T08:06:17.083Z,4.95
2024-02-20T08:08:43.691Z,4.55
2024-02-20T08:11:10.194Z,4.45
2024-02-20T08:13:36.802Z,5.45
2024-02-20T08:16:03.563Z,3.80
2024-02-20T08:18:30.096Z,4.72
2024-02-20T08:20:56.784Z,3.33
2024-02-20T08:23:23.302Z,5.88
2024-02-20T08:25:50.097Z,5.15
2024-02-20T08:28:16.721Z,4.47
2024-02-20T08:30:43.203Z,7.15
2024-02-20T08:33:09.775Z,6.07
2024-02-20T08:35:36.432Z,4.40
2024-02-20T08:38:03.813Z,5.32
2024-02-20T08:40:30.363Z,5.95
2024-02-20T08:42:56.917Z,3.63
2024-02-20T08:45:23.508Z,4.10
2024-02-20T08:47:51.653Z,4.18
2024-02-20T08:50:18.754Z,4.43
2024-02-20T08:52:45.577Z,6.82
2024-02-20T08:55:12.112Z,4.00
2024-02-20T08:57:38.675Z,3.90
2024-02-20T09:00:05.624Z,5.32
2024-02-20T09:02:32.245Z,3.65
2024-02-20T09:04:58.953Z,3.53
2024-02-20T09:07:25.767Z,3.83
2024-02-20T09:09:52.359Z,4.50
2024-02-20T09:12:20.450Z,5.32
2024-02-20T09:14:47.012Z,5.03
2024-02-20T09:17:13.697Z,2.60
2024-02-20T09:19:42.287Z,3.45
2024-02-20T09:22:11.449Z,2.80
2024-02-20T09:24:38.668Z,5.38
2024-02-20T09:27:05.138Z,2.08
2024-02-20T09:29:32.706Z,2.05
2024-02-20T09:31:59.642Z,2.95
2024-02-20T09:34:26.843Z,2.63
2024-02-20T09:36:53.472Z,4.35
2024-02-20T09:39:23.497Z,3.90
2024-02-20T09:41:53.512Z,1.50
2024-02-20T09:44:20.492Z,3.15
2024-02-20T09:47:06.770Z,3.92
2024-02-20T09:49:35.083Z,2.75
2024-02-20T09:52:04.422Z,2.42
2024-02-20T09:54:34.405Z,2.25
2024-02-20T09:57:01.019Z,3.58
2024-02-20T09:59:27.555Z,2.58
2024-02-20T10:01:55.050Z,3.28
2024-02-20T10:04:23.252Z,2.17
2024-02-20T10:06:49.957Z,3.38
2024-02-20T10:09:16.891Z,3.40
2024-02-20T10:11:43.648Z,4.95
2024-02-20T10:14:10.241Z,3.08
2024-02-20T10:16:36.780Z,3.03
2024-02-20T10:19:05.664Z,3.70
2024-02-20T10:21:32.306Z,4.35
2024-02-20T10:24:02.219Z,2.70
2024-02-20T10:26:32.540Z,5.50
2024-02-20T10:29:00.039Z,2.53
2024-02-20T10:31:27.149Z,3.80
2024-02-20T10:34:03.478Z,4.13
2024-02-20T10:36:36.537Z,7.38
2024-02-20T10:39:11.912Z,5.18
2024-02-20T10:41:39.174Z,4.55
2024-02-20T10:44:05.810Z,2.25
2024-02-20T10:46:36.131Z,2.13
2024-02-20T10:49:05.996Z,4.95
2024-02-20T10:51:32.890Z,4.03
2024-02-20T10:54:00.197Z,3.53
2024-02-20T10:56:29.791Z,3.08
2024-02-20T10:58:57.620Z,4.32
2024-02-20T11:01:25.365Z,3.72
2024-02-20T11:03:59.378Z,3.80
2024-02-20T11:06:32.099Z,2.35
2024-02-20T11:09:14.845Z,2.90
2024-02-20T11:11:41.987Z,3.42
2024-02-20T11:14:08.727Z,3.65
2024-02-20T11:16:36.192Z,2.67
2024-02-20T11:19:03.205Z,3.83
2024-02-20T11:21:31.111Z,1.85
2024-02-20T11:23:57.755Z,2.55
2024-02-20T11:26:31.821Z,1.73
2024-02-20T11:28:58.966Z,2.45
2024-02-20T11:31:28.907Z,1.33
2024-02-20T11:33:56.478Z,2.83
2024-02-20T11:36:23.208Z,1.50
2024-02-20T11:39:00.085Z,1.30
2024-02-20T11:41:26.856Z,2.30
2024-02-20T11:44:06.171Z,1.92
2024-02-20T11:46:33.234Z,3.40
2024-02-20T11:49:00.445Z,1.50
2024-02-20T11:51:27.297Z,1.85
2024-02-20T11:54:04.037Z,0.98
2024-02-20T11:56:31.667Z,2.58
2024-02-20T11:58:58.760Z,1.75
2024-02-20T12:01:25.784Z,0.65
2024-02-20T12:03:52.389Z,1.35
2024-02-20T12:06:26.008Z,0.88
2024-02-20T12:08:56.843Z,1.33
2024-02-20T12:11:27.970Z,0.85
2024-02-20T12:13:55.500Z,2.05
2024-02-20T12:16:27.829Z,2.08
2024-02-20T12:18:56.057Z,0.80
2024-02-20T12:21:25.977Z,1.05
2024-02-20T12:23:54.388Z,1.63
2024-02-20T12:26:21.077Z,0.88
2024-02-20T12:28:47.951Z,2.00
2024-02-20T12:31:19.798Z,0.98
2024-02-20T12:33:46.440Z,1.05
2024-02-20T12:36:13.009Z,1.40
2024-02-20T12:38:39.508Z,0.65
2024-02-20T12:41:06.931Z,1.65
2024-02-20T12:43:33.490Z,1.23
2024-02-20T12:46:00.175Z,0.55
2024-02-20T12:48:26.848Z,0.95
2024-02-20T12:50:53.407Z,0.95
2024-02-20T12:53:19.905Z,2.35
2024-02-20T12:55:46.675Z,0.57
2024-02-20T12:58:13.364Z,1.30
2024-02-20T13:00:40.014Z,1.05
2024-02-20T13:03:08.088Z,0.85
2024-02-20T13:05:35.193Z,0.30
2024-02-20T13:08:02.602Z,0.30
2024-02-20T13:10:35.174Z,0.82
2024-02-20T13:13:02.865Z,0.38
2024-02-20T13:15:29.864Z,0.60
2024-02-20T13:17:56.757Z,1.30
2024-02-20T13:20:23.706Z,0.80
2024-02-20T13:22:50.277Z,1.23
2024-02-20T13:25:17.287Z,0.45
2024-02-20T13:27:43.809Z,1.75
2024-02-20T13:30:12.424Z,1.88
2024-02-20T13:32:39.983Z,0.57
2024-02-20T13:35:06.939Z,0.65
2024-02-20T13:37:33.502Z,0.60
2024-02-20T13:40:00.143Z,0.68
2024-02-20T13:42:26.721Z,0.77
2024-02-20T13:44:53.201Z,0.85
2024-02-20T13:47:24.402Z,0.77
2024-02-20T13:49:51.622Z,0.30
2024-02-20T13:52:18.172Z,1.08
2024-02-20T13:54:44.868Z,1.17
2024-02-20T13:57:11.486Z,0.75
2024-02-20T13:59:38.293Z,1.38
2024-02-20T14:02:09.624Z,0.55
2024-02-20T14:04:36.448Z,2.22
2024-02-20T14:07:03.339Z,0.17
2024-02-20T14:09:30.137Z,0.20
2024-02-20T14:11:56.744Z,0.20
2024-02-20T14:14:23.360Z,0.10
2024-02-20T14:16:49.968Z,0.40
2024-02-20T14:19:16.553Z,0.20
2024-02-20T14:21:43.108Z,0.40
2024-02-20T14:24:09.582Z,0.30
2024-02-20T14:26:36.133Z,0.47
2024-02-20T14:29:04.421Z,0.30
2024-02-20T14:31:30.951Z,0.20
2024-02-20T14:33:58.497Z,0.80
2024-02-20T14:36:25.470Z,0.20
2024-02-20T14:38:51.994Z,0.20
2024-02-20T14:41:18.542Z,0.43
2024-02-20T14:43:45.135Z,1.35
2024-02-20T14:46:11.750Z,0.30
2024-02-20T14:48:38.449Z,3.00
2024-02-20T14:51:05.060Z,0.50
2024-02-20T14:53:31.730Z,0.63
2024-02-20T14:55:58.644Z,0.90
2024-02-20T14:58:25.332Z,0.40
2024-02-20T15:00:51.865Z,0.22
2024-02-20T15:03:21.656Z,0.43
2024-02-20T15:05:48.868Z,0.32
2024-02-20T15:08:18.393Z,0.20
2024-02-20T15:10:45.358Z,0.82
2024-02-20T15:13:11.974Z,1.30
2024-02-20T15:15:38.525Z,0.50
2024-02-20T15:18:05.453Z,1.75
2024-02-20T15:20:31.985Z,1.67
2024-02-20T15:22:58.538Z,1.08
2024-02-20T15:25:25.358Z,0.75
2024-02-20T15:27:51.861Z,1.10
2024-02-20T15:30:19.116Z,1.15
2024-02-20T15:32:47.275Z,0.47
2024-02-20T15:35:14.614Z,0.65
2024-02-20T15:37:41.537Z,1.13
2024-02-20T15:40:08.358Z,1.35
2024-02-20T15:42:35.219Z,2.65
2024-02-20T15:45:01.740Z,1.05
2024-02-20T15:47:28.578Z,1.00
2024-02-20T15:49:55.167Z,3.40
2024-02-20T15:52:23.671Z,0.90
2024-02-20T15:54:50.575Z,1.42
2024-02-20T15:57:17.549Z,0.95
2024-02-20T15:59:44.119Z,0.55
2024-02-20T16:02:11.167Z,1.33
2024-02-20T16:04:38.403Z,0.57
2024-02-20T16:07:05.333Z,1.45
2024-02-20T16:09:32.742Z,1.25
2024-02-20T16:11:59.268Z,1.15
2024-02-20T16:14:26.521Z,2.33
2024-02-20T16:16:53.628Z,0.88
2024-02-20T16:19:20.355Z,0.82
2024-02-20T16:21:47.035Z,2.25
2024-02-20T16:24:13.940Z,1.42
2024-02-20T16:26:40.578Z,1.52
2024-02-20T16:29:07.106Z,2.13
2024-02-20T16:31:33.610Z,1.30
2024-02-20T16:34:00.184Z,0.90
2024-02-20T16:36:26.741Z,2.55
2024-02-20T16:38:53.326Z,1.05
2024-02-20T16:41:24.516Z,0.60
2024-02-20T16:43:52.639Z,1.15
2024-02-20T16:46:19.487Z,0.98
2024-02-20T16:48:46.645Z,0.82
2024-02-20T16:51:13.229Z,1.30
2024-02-20T16:53:41.820Z,0.45
2024-02-20T16:56:08.447Z,0.77
2024-02-20T16:58:35.038Z,2.08
2024-02-20T17:01:01.581Z,1.60
2024-02-20T17:03:28.129Z,1.67
2024-02-20T17:05:54.811Z,0.85
2024-02-20T17:08:25.394Z,0.80
2024-02-20T17:10:52.246Z,1.30
2024-02-20T17:13:19.112Z,2.22
2024-02-20T17:15:45.636Z,1.45
2024-02-20T17:18:14.763Z,1.30
2024-02-20T17:20:43.134Z,1.55
2024-02-20T17:23:09.749Z,2.20
2024-02-20T17:25:36.785Z,2.95
2024-02-20T17:28:04.614Z,3.13
2024-02-20T17:30:31.227Z,1.55
2024-02-20T17:32:59.341Z,2.03
2024-02-20T17:35:26.114Z,1.17
2024-02-20T17:37:52.916Z,1.77
2024-02-20T17:40:21.059Z,1.27
2024-02-20T17:42:47.917Z,1.17
2024-02-20T17:45:19.007Z,0.50
2024-02-20T17:47:45.736Z,0.35
2024-02-20T17:50:12.309Z,0.63
2024-02-20T17:52:40.045Z,0.30
2024-02-20T17:55:07.189Z,0.50
2024-02-20T17:57:33.889Z,0.75
2024-02-20T18:00:00.560Z,0.40
2024-02-20T18:02:27.246Z,0.40
2024-02-20T18:04:54.001Z,0.30
2024-02-20T18:07:20.791Z,1.63
2024-02-20T18:09:48.367Z,0.50
2024-02-20T18:12:15.037Z,0.85
2024-02-20T18:14:41.726Z,0.90
2024-02-20T18:17:08.229Z,0.93
2024-02-20T18:19:34.782Z,0.60
2024-02-20T18:22:01.475Z,0.47
2024-02-20T18:24:28.010Z,0.60
2024-02-20T18:26:54.590Z,0.38
2024-02-20T18:29:21.574Z,0.50
2024-02-20T18:31:48.395Z,0.73
2024-02-20T18:34:15.067Z,0.30
2024-02-20T18:36:41.605Z,0.98
2024-02-20T18:39:10.571Z,0.93
2024-02-20T18:41:37.330Z,0.52
2024-02-20T18:44:03.874Z,0.95
2024-02-20T18:46:30.403Z,0.40
2024-02-20T18:48:57.273Z,0.63
2024-02-20T18:51:24.787Z,0.90
2024-02-20T18:53:53.119Z,0.40
2024-02-20T18:56:21.516Z,0.73
2024-02-20T18:58:48.107Z,0.50
2024-02-20T19:01:17.861Z,0.90
2024-02-20T19:03:46.671Z,3.10
2024-02-20T19:06:13.310Z,0.75
2024-02-20T19:08:44.896Z,1.02
2024-02-20T19:11:12.755Z,1.63
2024-02-20T19:13:39.954Z,1.60
2024-02-20T19:16:07.514Z,2.25
2024-02-20T19:18:34.356Z,1.30
2024-02-20T19:21:01.261Z,1.48
2024-02-20T19:23:27.867Z,1.05
2024-02-20T19:25:54.756Z,1.02
2024-02-20T19:28:21.583Z,1.17
2024-02-20T19:30:48.239Z,0.90
2024-02-20T19:33:14.819Z,0.93
2024-02-20T19:35:42.295Z,2.28
2024-02-20T19:38:11.354Z,0.90
2024-02-20T19:40:37.973Z,1.77
2024-02-20T19:43:04.760Z,0.98
2024-02-20T19:45:31.474Z,1.35
2024-02-20T19:47:58.061Z,1.58
2024-02-20T19:50:24.793Z,2.30
2024-02-20T19:52:51.465Z,0.85
2024-02-20T19:55:19.036Z,1.17
2024-02-20T19:57:46.952Z,2.00
2024-02-20T20:00:15.518Z,1.85
2024-02-20T20:02:42.054Z,1.73
2024-02-20T20:05:08.943Z,1.67
2024-02-20T20:07:35.660Z,3.22
2024-02-20T20:10:02.822Z,2.22
2024-02-20T20:12:29.457Z,3.45
2024-02-20T20:14:56.026Z,4.82
2024-02-20T20:17:24.242Z,2.78
2024-02-20T20:19:51.119Z,3.20
2024-02-20T20:22:17.639Z,6.05
2024-02-20T20:24:44.210Z,3.53
2024-02-20T20:27:10.814Z,3.88
2024-02-20T20:29:37.331Z,5.57
2024-02-20T20:32:03.999Z,7.18
2024-02-20T20:34:30.795Z,6.05
2024-02-20T20:36:57.832Z,9.13
2024-02-20T20:39:24.469Z,2.70
2024-02-20T20:41:51.177Z,2.75
2024-02-20T20:44:17.700Z,5.68
2024-02-20T20:46:44.319Z,6.75
2024-02-20T20:49:12.050Z,4.03
2024-02-20T20:51:38.712Z,6.35
2024-02-20T20:54:05.505Z,3.80
2024-02-20T20:56:34.424Z,3.13
2024-02-20T20:59:01.531Z,3.83
2024-02-20T21:01:28.173Z,5.30
2024-02-20T21:03:54.712Z,3.42
2024-02-20T21:06:21.498Z,2.80
2024-02-20T21:08:48.727Z,3.25
2024-02-20T21:11:15.296Z,3.15
2024-02-20T21:13:43.892Z,3.25
2024-02-20T21:16:10.461Z,4.13
2024-02-20T21:18:37.164Z,1.38
2024-02-20T21:21:08.327Z,2.58
2024-02-20T21:23:34.918Z,3.28
2024-02-20T21:26:01.778Z,3.50
2024-02-20T21:28:28.643Z,2.10
2024-02-20T21:30:55.191Z,2.30
2024-02-20T21:33:21.822Z,1.35
2024-02-20T21:35:48.642Z,1.40
2024-02-20T21:38:15.159Z,2.72
2024-02-20T21:40:42.768Z,1.92
2024-02-20T21:43:09.828Z,1.65
2024-02-20T21:45:36.414Z,5.63
2024-02-20T21:48:03.575Z,2.75
2024-02-20T21:50:30.126Z,1.23
2024-02-20T21:52:56.820Z,2.30
2024-02-20T21:55:23.431Z,1.65
2024-02-20T21:57:49.989Z,3.33
2024-02-20T22:00:16.615Z,3.58
2024-02-20T22:02:45.474Z,3.30
2024-02-20T22:05:13.853Z,1.50
2024-02-20T22:07:40.716Z,2.13
2024-02-20T22:10:08.510Z,1.25
2024-02-20T22:12:35.894Z,2.13
2024-02-20T22:15:05.840Z,2.92
2024-02-20T22:17:32.861Z,1.95
2024-02-20T22:19:59.534Z,1.50
2024-02-20T22:22:26.188Z,1.13
2024-02-20T22:24:52.692Z,1.85
2024-02-20T22:27:19.218Z,1.42
2024-02-20T22:29:48.545Z,3.00
2024-02-20T22:32:15.084Z,4.47
2024-02-20T22:34:45.136Z,1.42
2024-02-20T22:37:11.873Z,2.63
2024-02-20T22:39:38.489Z,2.78
2024-02-20T22:42:05.279Z,2.53
2024-02-20T22:44:31.773Z,1.08
2024-02-20T22:46:58.428Z,0.43
2024-02-20T22:49:25.628Z,0.93
2024-02-20T22:51:52.194Z,6.55
2024-02-20T22:54:18.757Z,3.03
2024-02-20T22:56:46.322Z,2.35
2024-02-20T22:59:12.894Z,1.95
2024-02-20T23:01:39.420Z,2.97
2024-02-20T23:04:07.036Z,2.15
2024-02-20T23:06:34.766Z,0.73
2024-02-20T23:09:01.420Z,1.60
2024-02-20T23:11:29.404Z,1.60
2024-02-20T23:13:56.060Z,2.42
2024-02-20T23:16:22.711Z,2.83
2024-02-20T23:18:49.262Z,2.25
2024-02-20T23:21:15.784Z,1.40
2024-02-20T23:23:42.242Z,2.53
2024-02-20T23:26:08.810Z,0.73
2024-02-20T23:28:35.567Z,1.80
2024-02-20T23:31:04.037Z,3.65
2024-02-20T23:33:30.776Z,0.98
2024-02-20T23:35:57.411Z,2.00
2024-02-20T23:38:23.934Z,1.38
2024-02-20T23:40:50.488Z,2.03
2024-02-20T23:43:17.355Z,2.22
2024-02-20T23:45:43.884Z,2.90
2024-02-20T23:48:10.468Z,3.97
2024-02-20T23:50:37.080Z,0.77
2024-02-20T23:53:04.075Z,1.52
2024-02-20T23:55:30.645Z,2.17
2024-02-20T23:57:57.139Z,2.50
